Time;durP1;ratioP1;P1;durP2;ratioP2;P2;SDS_P1;SDS_P2;PMS_P1;PMS_P2;Temp;Humidity;BMP_temperature;BMP_pressure;BME280_temperature;BME280_humidity;BME280_pressure;Samples;Min_cycle;Max_cycle;Signal;HPM_P1;HPM_P2
2023/03/04 00:01:16;;;;;;;;;;;;;;;25.36;38.34;94513.22;4956506;28;9057;-63
2023/03/04 00:03:42;;;;;;;;;;;;;;;25.35;38.80;94515.25;4975215;28;6977;-63
2023/03/04 00:06:08;;;;;;;;;;;;;;;25.36;38.15;94513.22;4988311;28;7523;-63
2023/03/04 00:08:34;;;;;;;;;;;;;;;25.34;38.93;94510.25;4955333;28;7032;-63
2023/03/04 00:11:32;;;;;;;;;;;;;;;25.35;37.97;94504.25;4956080;28;7224;-63
2023/03/04 00:14:09;;;;;;;;;;;;;;;25.33;38.29;94503.25;4881699;29;8962;-59
2023/03/04 00:16:44;;;;;;;;;;;;;;;25.35;38.82;94506.25;4887119;29;9032;-63
2023/03/04 00:19:12;;;;;;;;;;;;;;;25.33;38.65;94506.00;4895837;29;7228;-63
2023/03/04 00:21:39;;;;;;;;;;;;;;;25.32;38.37;94501.75;4914239;29;7337;-63
2023/03/04 00:24:06;;;;;;;;;;;;;;;25.33;38.53;94508.75;4903969;29;9068;-63
2023/03/04 00:26:33;;;;;;;;;;;;;;;25.34;38.71;94504.72;4895237;29;7061;-63
2023/03/04 00:29:00;;;;;;;;;;;;;;;25.33;38.45;94503.25;4893525;29;7522;-63
2023/03/04 00:31:28;;;;;;;;;;;;;;;25.32;38.19;94510.75;4894603;29;9110;-63
2023/03/04 00:34:06;;;;;;;;;;;;;;;25.31;38.74;94503.75;4910121;29;9326;-63
2023/03/04 00:36:36;;;;;;;;;;;;;;;25.33;37.89;94511.50;4898595;29;9313;-63
2023/03/04 00:39:02;;;;;;;;;;;;;;;25.33;38.40;94508.75;4913544;29;8616;-63
2023/03/04 00:41:39;;;;;;;;;;;;;;;25.34;38.40;94510.25;4874061;29;6910;-63
2023/03/04 00:44:16;;;;;;;;;;;;;;;25.31;38.58;94511.25;4897758;29;9009;-63
2023/03/04 00:47:14;;;;;;;;;;;;;;;25.33;38.23;94517.78;4888810;29;7055;-63
2023/03/04 00:49:50;;;;;;;;;;;;;;;25.32;37.93;94515.50;4890532;29;8055;-64
2023/03/04 00:52:26;;;;;;;;;;;;;;;25.32;38.90;94512.75;4915710;29;7240;-64
2023/03/04 00:55:01;;;;;;;;;;;;;;;25.32;38.73;94512.75;4908502;29;7068;-63
2023/03/04 00:57:31;;;;;;;;;;;;;;;25.33;38.68;94514.25;4926896;29;7069;-63
2023/03/04 00:59:56;;;;;;;;;;;;;;;25.33;38.41;94508.75;4933595;29;8972;-63
2023/03/04 01:02:49;;;;;;;;;;;;;;;25.31;38.54;94509.28;4922272;29;9348;-62
2023/03/04 01:05:41;;;;;;;;;;;;;;;25.32;38.64;94512.75;4934336;29;8107;-63
2023/03/04 01:08:37;;;;;;;;;;;;;;;25.32;37.86;94507.25;4941976;28;7267;-63
2023/03/04 01:11:05;;;;;;;;;;;;;;;25.29;38.21;94503.50;4933599;28;7040;-63
2023/03/04 01:13:42;;;;;;;;;;;;;;;25.32;37.89;94512.75;4952070;28;7269;-63
2023/03/04 01:16:18;;;;;;;;;;;;;;;25.32;38.47;94510.00;4949849;28;7341;-63
2023/03/04 01:18:46;;;;;;;;;;;;;;;25.31;38.81;94503.00;4950958;28;9382;-63
2023/03/04 01:21:12;;;;;;;;;;;;;;;25.31;38.81;94503.00;4936242;28;9032;-63
2023/03/04 01:23:38;;;;;;;;;;;;;;;25.29;38.51;94497.25;4938554;28;7110;-63
2023/03/04 01:26:14;;;;;;;;;;;;;;;25.30;38.38;94496.00;4952069;28;7268;-64
2023/03/04 01:28:51;;;;;;;;;;;;;;;25.29;37.92;94498.00;4955142;28;8722;-63
2023/03/04 01:31:47;;;;;;;;;;;;;;;25.31;37.78;94500.25;4965066;28;9176;-63
2023/03/04 01:34:13;;;;;;;;;;;;;;;25.30;37.92;94496.00;4942128;28;7425;-63
2023/03/04 01:36:39;;;;;;;;;;;;;;;25.30;38.62;94493.25;4946762;28;7192;-63
2023/03/04 01:39:05;;;;;;;;;;;;;;;25.29;38.42;94489.72;4950480;28;7354;-63
2023/03/04 01:41:36;;;;;;;;;;;;;;;25.29;38.19;94497.25;4934936;28;7426;-63
2023/03/04 01:44:03;;;;;;;;;;;;;;;25.29;37.90;94491.75;4952888;28;7105;-63
2023/03/04 01:47:01;;;;;;;;;;;;;;;25.29;38.79;94491.75;4957381;28;7066;-63
2023/03/04 01:49:29;;;;;;;;;;;;;;;25.30;37.91;94487.72;4924199;29;8954;-63
2023/03/04 01:51:56;;;;;;;;;;;;;;;25.26;38.48;94482.50;4916399;29;9075;-64
2023/03/04 01:54:29;;;;;;;;;;;;;;;25.28;37.80;94476.47;4919728;29;7270;-63
2023/03/04 01:56:59;;;;;;;;;;;;;;;25.30;38.50;94476.72;4897326;29;8967;-64
2023/03/04 01:59:29;;;;;;;;;;;;;;;25.29;38.17;94484.22;4912483;29;8654;-63
2023/03/04 02:02:00;;;;;;;;;;;;;;;25.29;37.98;94469.72;4898647;29;8998;-64
2023/03/04 02:04:33;;;;;;;;;;;;;;;25.28;38.50;94468.22;4920734;29;6970;-63
2023/03/04 02:07:01;;;;;;;;;;;;;;;25.27;38.15;94461.97;4913038;29;7220;-63
2023/03/04 02:09:28;;;;;;;;;;;;;;;25.29;38.61;94469.72;4911947;29;7548;-63
2023/03/04 02:11:56;;;;;;;;;;;;;;;25.30;37.81;94465.72;4930429;28;6877;-63
2023/03/04 02:14:24;;;;;;;;;;;;;;;25.30;38.30;94465.72;4921722;29;7483;-63
2023/03/04 02:16:52;;;;;;;;;;;;;;;25.29;37.78;94473.22;4929476;29;7088;-63
2023/03/04 02:19:49;;;;;;;;;;;;;;;25.29;38.22;94467.69;4929794;29;9028;-63
2023/03/04 02:22:18;;;;;;;;;;;;;;;25.27;37.83;94459.22;4925635;29;9085;-63
2023/03/04 02:24:56;;;;;;;;;;;;;;;25.27;38.16;94464.72;4939951;28;7276;-63
2023/03/04 02:27:24;;;;;;;;;;;;;;;25.26;38.13;94456.97;4987512;28;7299;-63
2023/03/04 02:29:57;;;;;;;;;;;;;;;25.27;38.06;94459.22;4969053;28;7126;-63
2023/03/04 02:32:23;;;;;;;;;;;;;;;25.27;38.32;94452.97;4981532;28;9355;-63
2023/03/04 02:34:50;;;;;;;;;;;;;;;25.27;38.04;94458.47;4960172;28;7010;-63
2023/03/04 02:37:18;;;;;;;;;;;;;;;25.26;38.25;94454.22;4978700;28;9036;-63
2023/03/04 02:39:47;;;;;;;;;;;;;;;25.27;38.20;94461.22;4970397;28;7056;-63
2023/03/04 02:42:15;;;;;;;;;;;;;;;25.26;38.60;94456.97;4956923;28;8878;-63
2023/03/04 02:44:58;;;;;;;;;;;;;;;25.27;38.74;94464.00;4977288;28;9196;-63
2023/03/04 02:47:25;;;;;;;;;;;;;;;25.28;37.95;94463.47;4982520;28;8824;-63
2023/03/04 02:49:52;;;;;;;;;;;;;;;25.27;38.47;94464.00;4974345;28;9604;-63
2023/03/04 02:52:25;;;;;;;;;;;;;;;25.27;38.74;94466.75;4968974;28;7022;-63
2023/03/04 02:54:52;;;;;;;;;;;;;;;25.26;38.65;94473.47;4966771;28;9057;-63
2023/03/04 02:57:20;;;;;;;;;;;;;;;25.23;38.01;94467.00;4961654;28;7213;-63
2023/03/04 02:59:48;;;;;;;;;;;;;;;25.26;38.53;94467.97;4968340;28;7035;-63
2023/03/04 03:02:17;;;;;;;;;;;;;;;25.25;38.32;94469.97;4992333;28;9438;-63
2023/03/04 03:04:48;;;;;;;;;;;;;;;25.25;38.03;94463.75;4973411;28;7239;-63
2023/03/04 03:07:14;;;;;;;;;;;;;;;25.24;37.87;94465.00;5003838;28;7262;-63
2023/03/04 03:09:42;;;;;;;;;;;;;;;25.23;38.29;94464.22;4993487;28;9019;-63
2023/03/04 03:12:17;;;;;;;;;;;;;;;25.25;38.17;94458.97;4958761;28;9076;-63
2023/03/04 03:14:45;;;;;;;;;;;;;;;25.24;37.86;94454.72;4969063;28;7270;-63
2023/03/04 03:17:18;;;;;;;;;;;;;;;25.26;38.33;94448.72;4978075;28;9111;-63
2023/03/04 03:19:45;;;;;;;;;;;;;;;25.25;38.09;94449.97;4962801;28;8733;-63
2023/03/04 03:22:13;;;;;;;;;;;;;;;25.24;37.96;94454.72;4969063;28;7563;-63
2023/03/04 03:24:41;;;;;;;;;;;;;;;25.25;38.66;94456.22;4966663;28;9351;-63
2023/03/04 03:27:11;;;;;;;;;;;;;;;25.27;38.08;94458.47;5001571;28;7269;-63
2023/03/04 03:29:46;;;;;;;;;;;;;;;25.27;38.62;94461.97;4971663;28;7028;-63
2023/03/04 03:32:13;;;;;;;;;;;;;;;25.22;38.47;94457.25;4968424;28;9369;-63
2023/03/04 03:34:48;;;;;;;;;;;;;;;25.25;38.25;94464.47;4969601;28;7037;-63
2023/03/04 03:37:20;;;;;;;;;;;;;;;25.26;38.69;94460.47;4981902;28;7273;-63
2023/03/04 03:39:46;;;;;;;;;;;;;;;25.25;38.38;94458.97;4982810;28;8730;-63
2023/03/04 03:42:39;;;;;;;;;;;;;;;25.25;38.80;94456.22;4991095;28;9746;-62
2023/03/04 03:45:48;;;;;;;;;;;;;;;25.25;38.69;94455.50;4965224;28;9422;-63
2023/03/04 03:48:14;;;;;;;;;;;;;;;25.25;38.11;94455.50;4955729;28;7144;-63
2023/03/04 03:51:00;;;;;;;;;;;;;;;25.25;38.46;94458.25;4972012;28;7037;-63
2023/03/04 03:53:38;;;;;;;;;;;;;;;25.26;37.96;94451.47;4955368;28;7304;-63
2023/03/04 03:56:13;;;;;;;;;;;;;;;25.25;38.77;94455.50;4965009;28;7164;-63
2023/03/04 03:59:08;;;;;;;;;;;;;;;25.25;38.71;94455.50;4959014;28;7023;-63
2023/03/04 04:02:08;;;;;;;;;;;;;;;25.26;37.82;94459.72;4879902;29;7286;-63
2023/03/04 04:04:45;;;;;;;;;;;;;;;25.25;38.74;94464.47;4877680;29;9180;-63
2023/03/04 04:07:40;;;;;;;;;;;;;;;25.25;38.65;94452.72;4894068;29;7027;-62
2023/03/04 04:10:22;;;;;;;;;;;;;;;25.24;38.28;94460.25;4859908;29;7279;-63
2023/03/04 04:13:01;;;;;;;;;;;;;;;25.24;38.28;94457.47;4860863;29;7306;-63
2023/03/04 04:15:38;;;;;;;;;;;;;;;25.24;38.14;94457.47;4849685;29;7045;-63
2023/03/04 04:18:14;;;;;;;;;;;;;;;25.23;38.50;94446.97;4855576;29;8732;-63
2023/03/04 04:20:54;;;;;;;;;;;;;;;25.24;38.56;94451.97;4830448;29;7056;-63
2023/03/04 04:23:21;;;;;;;;;;;;;;;25.24;38.25;94451.97;4879519;29;9145;-63
2023/03/04 04:25:54;;;;;;;;;;;;;;;25.25;37.89;94458.97;4857882;29;9277;-63
2023/03/04 04:28:39;;;;;;;;;;;;;;;25.23;38.51;94444.22;4875244;29;9358;-63
2023/03/04 04:31:10;;;;;;;;;;;;;;;25.24;38.42;94459.47;4878569;29;7058;-62
2023/03/04 04:33:51;;;;;;;;;;;;;;;25.24;38.70;94462.22;4871574;29;7216;-63
2023/03/04 04:36:21;;;;;;;;;;;;;;;25.20;37.96;94450.75;4890956;29;8953;-63
2023/03/04 04:38:56;;;;;;;;;;;;;;;25.24;38.71;94453.97;4953190;28;9015;-63
2023/03/04 04:41:42;;;;;;;;;;;;;;;25.24;38.44;94459.47;4970971;28;7267;-63
2023/03/04 04:44:23;;;;;;;;;;;;;;;25.21;37.94;94447.47;4960681;28;8773;-59
2023/03/04 04:46:51;;;;;;;;;;;;;;;25.23;38.12;94455.22;4958898;28;9416;-63
2023/03/04 04:49:20;;;;;;;;;;;;;;;25.23;37.81;94452.47;4985843;28;9348;-63
2023/03/04 04:51:46;;;;;;;;;;;;;;;25.23;37.99;94455.22;4975490;28;9080;-62
2023/03/04 04:54:16;;;;;;;;;;;;;;;25.23;38.53;94449.72;4967826;28;7259;-63
2023/03/04 04:56:44;;;;;;;;;;;;;;;25.22;38.68;94450.97;4954601;28;7024;-63
2023/03/04 04:59:25;;;;;;;;;;;;;;;25.23;38.76;94455.22;4995748;28;7275;-63
2023/03/04 05:02:04;;;;;;;;;;;;;;;25.23;37.89;94457.97;4967742;28;7304;-63
2023/03/04 05:04:32;;;;;;;;;;;;;;;25.22;38.12;94460.00;4970254;28;8991;-62
2023/03/04 05:07:03;;;;;;;;;;;;;;;25.23;38.34;94461.47;4971461;28;7021;-63
2023/03/04 05:09:30;;;;;;;;;;;;;;;25.23;38.11;94460.72;4970491;28;9045;-64
2023/03/04 05:11:58;;;;;;;;;;;;;;;25.22;37.86;94464.75;4963350;28;9342;-63
2023/03/04 05:14:25;;;;;;;;;;;;;;;25.23;38.46;94467.00;4957553;28;7172;-63
2023/03/04 05:16:51;;;;;;;;;;;;;;;25.24;38.18;94467.75;4971983;28;9111;-63
2023/03/04 05:19:20;;;;;;;;;;;;;;;25.23;38.12;94461.47;4968553;28;7032;-62
2023/03/04 05:22:20;;;;;;;;;;;;;;;25.24;38.49;94473.25;4974550;28;9108;-63
2023/03/04 05:24:56;;;;;;;;;;;;;;;25.23;38.39;94460.72;4953610;28;7041;-63
2023/03/04 05:27:30;;;;;;;;;;;;;;;25.23;37.87;94472.50;4943365;28;7300;-63
2023/03/04 05:29:59;;;;;;;;;;;;;;;25.24;38.18;94473.25;4933085;28;7034;-63
2023/03/04 05:32:26;;;;;;;;;;;;;;;25.20;38.08;94468.00;4947618;28;8616;-62
2023/03/04 05:34:56;;;;;;;;;;;;;;;25.22;39.01;94471.00;4931242;29;7138;-64
2023/03/04 05:37:37;;;;;;;;;;;;;;;25.22;38.59;94473.75;4944135;28;9457;-63
2023/03/04 05:40:04;;;;;;;;;;;;;;;25.21;38.31;94469.50;4936013;28;7032;-63
2023/03/04 05:42:50;;;;;;;;;;;;;;;25.23;38.84;94472.50;4939960;28;7137;-63
2023/03/04 05:45:25;;;;;;;;;;;;;;;25.23;38.75;94472.50;4934401;28;9223;-63
2023/03/04 05:47:53;;;;;;;;;;;;;;;25.23;38.11;94474.50;4941754;28;8753;-62
2023/03/04 05:50:22;;;;;;;;;;;;;;;25.22;38.57;94476.50;4929288;28;7255;-63
2023/03/04 05:52:49;;;;;;;;;;;;;;;25.22;38.85;94475.75;4932603;28;7034;-63
2023/03/04 05:55:33;;;;;;;;;;;;;;;25.20;38.46;94473.53;4937784;28;7359;-63
2023/03/04 05:58:01;;;;;;;;;;;;;;;25.21;37.84;94475.00;4934305;29;8657;-63
2023/03/04 06:00:35;;;;;;;;;;;;;;;25.22;38.07;94475.75;4971864;28;8719;-63
2023/03/04 06:03:19;;;;;;;;;;;;;;;25.24;38.51;94476.00;4968738;28;7100;-63
2023/03/04 06:06:11;;;;;;;;;;;;;;;25.24;38.97;94473.25;4965219;28;7104;-63
2023/03/04 06:08:47;;;;;;;;;;;;;;;25.24;37.87;94479.50;4931523;28;9829;-63
2023/03/04 06:11:26;;;;;;;;;;;;;;;25.23;38.20;94483.50;4927151;29;8990;-63
2023/03/04 06:14:04;;;;;;;;;;;;;;;25.22;38.61;94473.75;4929509;28;8773;-63
2023/03/04 06:16:39;;;;;;;;;;;;;;;25.21;38.13;94482.50;4934265;28;9075;-63
2023/03/04 06:19:14;;;;;;;;;;;;;;;25.20;38.72;94484.53;4945121;28;7036;-63
2023/03/04 06:21:44;;;;;;;;;;;;;;;25.21;38.11;94490.75;4925238;28;7422;-63
2023/03/04 06:24:12;;;;;;;;;;;;;;;25.25;38.33;94485.78;4934901;28;9427;-63
2023/03/04 06:26:57;;;;;;;;;;;;;;;25.25;38.59;94499.53;4935159;28;8724;-63
2023/03/04 06:29:58;;;;;;;;;;;;;;;25.25;38.92;94499.53;4936438;28;8619;-63
2023/03/04 06:32:34;;;;;;;;;;;;;;;25.24;38.90;94498.78;4932439;29;8229;-62
2023/03/04 06:35:03;;;;;;;;;;;;;;;25.31;38.24;94494.75;4944261;28;8841;-63
2023/03/04 06:37:39;;;;;;;;;;;;;;;25.32;38.16;94502.50;4940125;28;9710;-62
2023/03/04 06:40:07;;;;;;;;;;;;;;;25.31;37.86;94503.75;4936514;28;7130;-63
2023/03/04 06:42:45;;;;;;;;;;;;;;;25.30;38.41;94504.25;4945699;28;7274;-64
2023/03/04 06:45:45;;;;;;;;;;;;;;;25.30;38.75;94504.25;4957288;28;6989;-62
2023/03/04 06:48:21;;;;;;;;;;;;;;;25.30;38.54;94509.75;4954128;28;8759;-63
2023/03/04 06:50:56;;;;;;;;;;;;;;;25.30;38.39;94504.25;4946818;28;9179;-63
2023/03/04 06:53:23;;;;;;;;;;;;;;;25.33;37.99;94506.75;4938828;28;7567;-63
2023/03/04 06:56:03;;;;;;;;;;;;;;;25.34;38.27;94507.47;4947871;28;9049;-62
2023/03/04 06:58:38;;;;;;;;;;;;;;;25.32;38.41;94512.75;4936944;28;7105;-63
2023/03/04 07:01:19;;;;;;;;;;;;;;;25.32;38.76;94512.75;4948965;28;9297;-64
2023/03/04 07:04:17;;;;;;;;;;;;;;;25.31;38.61;94519.53;4951203;28;8703;-63
2023/03/04 07:06:53;;;;;;;;;;;;;;;25.30;38.23;94521.53;4913149;29;7339;-63
2023/03/04 07:09:19;;;;;;;;;;;;;;;25.31;37.93;94519.53;4898351;29;7109;-63
2023/03/04 07:11:47;;;;;;;;;;;;;;;25.30;38.15;94526.28;4908696;29;7917;-63
2023/03/04 07:14:14;;;;;;;;;;;;;;;25.31;37.78;94527.78;4898478;29;7227;-64
2023/03/04 07:16:49;;;;;;;;;;;;;;;25.30;37.98;94531.78;4899054;29;7027;-63
2023/03/04 07:19:35;;;;;;;;;;;;;;;25.29;37.87;94522.03;4905225;29;9117;-63
2023/03/04 07:22:03;;;;;;;;;;;;;;;25.30;38.64;94532.53;4897031;29;7480;-64
2023/03/04 07:24:31;;;;;;;;;;;;;;;25.29;38.59;94541.31;4898054;29;9178;-64
2023/03/04 07:27:02;;;;;;;;;;;;;;;25.30;38.10;94548.31;4915688;29;9156;-64
2023/03/04 07:30:05;;;;;;;;;;;;;;;25.29;39.01;94539.28;4896808;29;7026;-63
2023/03/04 07:32:39;;;;;;;;;;;;;;;25.27;38.42;94543.81;4914770;29;8061;-64
2023/03/04 07:35:07;;;;;;;;;;;;;;;25.32;38.28;94551.28;4912517;29;7301;-64
2023/03/04 07:37:33;;;;;;;;;;;;;;;25.30;38.70;94557.31;4915813;29;7366;-65
2023/03/04 07:39:58;;;;;;;;;;;;;;;25.33;38.65;94555.56;4911724;29;9033;-64
2023/03/04 07:42:24;;;;;;;;;;;;;;;25.31;38.40;94549.81;4909265;28;7442;-64
2023/03/04 07:44:50;;;;;;;;;;;;;;;25.31;38.56;94545.06;4974639;28;7013;-62
2023/03/04 07:47:16;;;;;;;;;;;;;;;25.32;38.47;94552.06;4966450;28;9142;-63
2023/03/04 07:49:45;;;;;;;;;;;;;;;25.32;38.78;94551.28;4972707;28;7526;-62
2023/03/04 07:52:20;;;;;;;;;;;;;;;25.28;38.64;94545.31;4961729;28;9041;-62
2023/03/04 07:55:08;;;;;;;;;;;;;;;25.25;39.17;94552.56;4965187;28;9439;-63
2023/03/04 07:57:45;;;;;;;;;;;;;;;25.25;38.57;94551.84;4975452;28;7145;-62
2023/03/04 08:00:17;;;;;;;;;;;;;;;25.24;39.10;94556.59;4962826;28;7779;-62
2023/03/04 08:02:53;;;;;;;;;;;;;;;25.22;38.69;94550.84;4976096;28;7172;-62
2023/03/04 08:05:19;;;;;;;;;;;;;;;25.24;38.76;94555.84;4990352;28;9430;-62
2023/03/04 08:07:47;;;;;;;;;;;;;;;25.23;38.81;94555.06;4979878;28;8758;-62
2023/03/04 08:10:15;;;;;;;;;;;;;;;25.23;38.99;94549.56;4970568;28;9016;-62
2023/03/04 08:12:49;;;;;;;;;;;;;;;25.24;38.76;94544.81;4973542;28;7301;-63
2023/03/04 08:15:15;;;;;;;;;;;;;;;25.25;38.84;94557.34;4987462;28;7258;-63
2023/03/04 08:17:44;;;;;;;;;;;;;;;25.27;38.77;94554.84;4970437;28;7243;-62
2023/03/04 08:20:13;;;;;;;;;;;;;;;25.24;38.71;94555.84;4968405;28;7101;-64
2023/03/04 08:22:39;;;;;;;;;;;;;;;25.26;39.03;94559.59;4969837;28;7801;-63
2023/03/04 08:25:06;;;;;;;;;;;;;;;25.26;38.88;94554.06;4968929;28;7378;-61
2023/03/04 08:27:32;;;;;;;;;;;;;;;25.27;39.50;94557.59;4980431;28;7754;-63
2023/03/04 08:29:58;;;;;;;;;;;;;;;25.29;39.11;94550.28;4987726;28;7229;-63
2023/03/04 08:32:24;;;;;;;;;;;;;;;25.30;39.48;94557.31;4988042;28;8694;-64
2023/03/04 08:34:51;;;;;;;;;;;;;;;25.29;39.69;94552.31;4955311;28;7000;-62
2023/03/04 08:37:22;;;;;;;;;;;;;;;25.28;38.96;94556.31;4991114;28;7201;-63
2023/03/04 08:39:48;;;;;;;;;;;;;;;25.27;39.74;94561.06;4966196;28;7014;-63
2023/03/04 08:42:35;;;;;;;;;;;;;;;25.27;39.28;94555.56;4963017;28;7269;-62
2023/03/04 08:45:01;;;;;;;;;;;;;;;25.26;39.05;94554.06;4971548;28;8800;-63
2023/03/04 08:47:34;;;;;;;;;;;;;;;25.25;39.61;94547.06;4949041;28;9367;-63
2023/03/04 08:50:27;;;;;;;;;;;;;;;25.26;39.01;94554.06;4954161;28;7053;-63
2023/03/04 08:52:54;;;;;;;;;;;;;;;25.26;38.64;94554.06;4920056;29;7116;-63
2023/03/04 08:55:37;;;;;;;;;;;;;;;25.28;39.32;94556.31;4945840;28;8938;-62
2023/03/04 08:58:07;;;;;;;;;;;;;;;25.29;39.49;94546.81;4935007;28;7236;-63
2023/03/04 09:00:35;;;;;;;;;;;;;;;25.30;39.62;94553.81;4953334;28;8687;-63
2023/03/04 09:03:11;;;;;;;;;;;;;;;25.34;39.52;94554.28;4952863;28;9037;-62
2023/03/04 09:05:48;;;;;;;;;;;;;;;25.33;39.12;94544.56;4936217;28;7040;-63
2023/03/04 09:08:15;;;;;;;;;;;;;;;25.34;38.65;94543.28;4924128;29;7087;-63
2023/03/04 09:10:53;;;;;;;;;;;;;;;25.36;38.61;94546.28;4935107;28;7278;-62
2023/03/04 09:13:58;;;;;;;;;;;;;;;25.33;39.49;94544.56;4942268;28;9251;-62
2023/03/04 09:16:24;;;;;;;;;;;;;;;25.34;38.60;94543.28;4871368;29;9687;-63
2023/03/04 09:19:01;;;;;;;;;;;;;;;25.34;38.54;94544.03;4881299;29;9245;-63
2023/03/04 09:21:27;;;;;;;;;;;;;;;25.34;39.11;94537.78;4885382;29;9045;-63
2023/03/04 09:23:52;;;;;;;;;;;;;;;25.35;38.74;94544.78;4862700;29;7263;-62
2023/03/04 09:26:25;;;;;;;;;;;;;;;25.35;38.95;94537.28;4875290;29;9054;-62
2023/03/04 09:29:15;;;;;;;;;;;;;;;25.36;38.60;94529.75;4892194;29;7049;-63
2023/03/04 09:31:44;;;;;;;;;;;;;;;25.35;38.52;94544.78;4928260;29;7443;-62
2023/03/04 09:34:13;;;;;;;;;;;;;;;25.35;39.04;94531.03;4916313;29;8987;-61
2023/03/04 09:36:38;;;;;;;;;;;;;;;25.35;39.00;94542.03;4930452;28;7366;-61
2023/03/04 09:39:06;;;;;;;;;;;;;;;25.37;39.36;94537.53;4915564;29;7082;-62
2023/03/04 09:41:45;;;;;;;;;;;;;;;25.40;39.01;94541.28;4929792;28;7054;-61
2023/03/04 09:44:31;;;;;;;;;;;;;;;25.45;39.17;94532.25;4934582;28;9162;-63
2023/03/04 09:47:18;;;;;;;;;;;;;;;25.50;39.32;94537.00;4915592;29;8974;-62
2023/03/04 09:50:05;;;;;;;;;;;;;;;25.59;38.95;94541.47;4938561;28;7020;-63
2023/03/04 09:52:54;;;;;;;;;;;;;;;25.60;38.89;94543.00;4969175;28;7038;-61
2023/03/04 09:55:24;;;;;;;;;;;;;;;25.56;38.90;94537.72;4981168;28;7283;-63
2023/03/04 09:58:00;;;;;;;;;;;;;;;25.55;38.76;94541.75;4966846;28;7464;-62
2023/03/04 10:00:40;;;;;;;;;;;;;;;25.54;38.43;94545.00;4969645;28;7088;-62
2023/03/04 10:03:16;;;;;;;;;;;;;;;25.56;38.50;94537.72;4964477;28;7257;-63
2023/03/04 10:06:09;;;;;;;;;;;;;;;25.63;37.91;94541.97;4984678;28;7141;-62
2023/03/04 10:08:45;;;;;;;;;;;;;;;25.66;38.49;94543.72;4974922;28;7079;-63
2023/03/04 10:11:49;;;;;;;;;;;;;;;25.69;38.81;94540.69;4984172;28;9050;-63
2023/03/04 10:14:37;;;;;;;;;;;;;;;25.72;38.56;94539.66;4898271;29;8946;-63
2023/03/04 10:17:15;;;;;;;;;;;;;;;25.72;39.42;94536.91;4925256;29;9098;-62
2023/03/04 10:19:49;;;;;;;;;;;;;;;25.77;38.14;94529.88;4890333;29;9843;-62
2023/03/04 10:23:04;;;;;;;;;;;;;;;25.76;39.26;94533.88;4896003;29;7081;-64
2023/03/04 10:25:52;;;;;;;;;;;;;;;25.77;39.12;94536.16;4861048;29;7255;-63
2023/03/04 10:28:28;;;;;;;;;;;;;;;25.76;38.51;94534.63;4875478;29;9468;-64
2023/03/04 10:31:36;;;;;;;;;;;;;;;25.77;38.89;94524.38;4860628;29;7033;-64
2023/03/04 10:34:05;;;;;;;;;;;;;;;25.77;39.22;94529.88;4880630;29;7660;-65
2023/03/04 10:36:49;;;;;;;;;;;;;;;25.79;39.36;94522.63;4875628;29;7210;-63
2023/03/04 10:39:52;;;;;;;;;;;;;;;25.86;39.15;94522.06;4848904;29;7237;-64
2023/03/04 10:42:33;;;;;;;;;;;;;;;25.99;38.85;94516.00;4802844;29;7359;-64
2023/03/04 10:45:22;;;;;;;;;;;;;;;26.08;39.08;94515.66;4802511;29;7261;-63
2023/03/04 10:48:04;;;;;;;;;;;;;;;26.07;38.40;94514.94;4836166;29;9049;-64
2023/03/04 10:50:31;;;;;;;;;;;;;;;26.05;38.21;94517.44;4878356;29;7220;-63
2023/03/04 10:53:29;;;;;;;;;;;;;;;26.06;38.18;94518.19;4878138;29;8428;-63
2023/03/04 10:55:55;;;;;;;;;;;;;;;26.03;38.11;94514.44;4841959;29;9061;-64
2023/03/04 10:58:24;;;;;;;;;;;;;;;26.00;38.88;94498.94;4830510;29;7238;-64
2023/03/04 11:01:14;;;;;;;;;;;;;;;26.02;38.60;94501.94;4839339;29;7099;-65
2023/03/04 11:03:52;;;;;;;;;;;;;;;26.02;38.52;94495.66;4850878;29;7398;-64
2023/03/04 11:06:20;;;;;;;;;;;;;;;26.01;38.79;94500.41;4847120;29;7012;-64
2023/03/04 11:08:59;;;;;;;;;;;;;;;26.02;39.30;94501.16;4836735;29;7247;-64
2023/03/04 11:11:43;;;;;;;;;;;;;;;26.00;38.79;94496.19;4832996;29;7932;-63
2023/03/04 11:14:54;;;;;;;;;;;;;;;26.01;38.50;94494.91;4834284;29;7038;-64
2023/03/04 11:17:49;;;;;;;;;;;;;;;26.02;38.43;94488.16;4866517;29;7891;-63
2023/03/04 11:20:43;;;;;;;;;;;;;;;26.03;38.51;94486.88;4859588;29;7233;-64
2023/03/04 11:23:24;;;;;;;;;;;;;;;26.05;39.15;94484.38;4859585;29;8686;-64
2023/03/04 11:26:25;;;;;;;;;;;;;;;26.06;38.64;94496.13;4849695;29;7270;-63
2023/03/04 11:29:28;;;;;;;;;;;;;;;26.05;38.69;94484.38;4870042;29;7267;-64
2023/03/04 11:32:02;;;;;;;;;;;;;;;26.04;39.28;94485.63;4895848;28;8848;-63
2023/03/04 11:34:54;;;;;;;;;;;;;;;26.06;38.91;94474.84;4969818;28;7014;-64
2023/03/04 11:37:40;;;;;;;;;;;;;;;26.07;38.67;94476.34;4991173;28;9035;-63
2023/03/04 11:40:14;;;;;;;;;;;;;;;26.08;39.28;94474.31;4992967;28;7398;-64
2023/03/04 11:43:17;;;;;;;;;;;;;;;26.04;39.16;94477.34;4965426;28;7140;-64
2023/03/04 11:46:10;;;;;;;;;;;;;;;25.99;38.71;94472.63;4954704;28;7361;-64
2023/03/04 11:48:58;;;;;;;;;;;;;;;26.00;39.26;94470.63;4975114;28;7287;-63
2023/03/04 11:51:52;;;;;;;;;;;;;;;26.01;38.98;94472.84;4970818;28;7287;-63
2023/03/04 11:54:56;;;;;;;;;;;;;;;26.01;39.00;94467.34;4984799;28;8371;-64
2023/03/04 11:57:43;;;;;;;;;;;;;;;26.00;38.62;94463.09;4950065;28;7679;-64
2023/03/04 12:00:18;;;;;;;;;;;;;;;25.98;38.63;94462.88;4939803;28;7250;-64
2023/03/04 12:03:21;;;;;;;;;;;;;;;25.98;39.16;94462.88;4955916;28;7285;-65
2023/03/04 12:06:26;;;;;;;;;;;;;;;26.04;39.25;94460.81;4945013;28;6997;-64
2023/03/04 12:09:17;;;;;;;;;;;;;;;26.07;39.26;94464.56;4951605;28;6973;-64
2023/03/04 12:12:03;;;;;;;;;;;;;;;26.06;39.23;94461.06;4946590;28;7046;-64
2023/03/04 12:15:10;;;;;;;;;;;;;;;26.08;39.05;94455.81;4939019;28;7014;-64
2023/03/04 12:18:22;;;;;;;;;;;;;;;26.08;39.07;94455.00;4880104;29;7375;-64
2023/03/04 12:21:08;;;;;;;;;;;;;;;26.09;38.64;94449.03;4895917;29;9332;-64
2023/03/04 12:23:49;;;;;;;;;;;;;;;26.12;39.17;94448.00;4895185;29;7766;-64
2023/03/04 12:26:17;;;;;;;;;;;;;;;26.13;38.06;94434.97;4893946;29;9694;-64
2023/03/04 12:29:02;;;;;;;;;;;;;;;26.16;38.46;94429.16;4892233;29;7072;-64
2023/03/04 12:31:36;;;;;;;;;;;;;;;26.15;38.77;94427.69;4895352;29;7281;-65
2023/03/04 12:34:26;;;;;;;;;;;;;;;26.20;38.54;94433.66;4891470;29;9030;-64
2023/03/04 12:37:04;;;;;;;;;;;;;;;26.22;38.66;94417.34;4885025;29;7027;-65
2023/03/04 12:39:42;;;;;;;;;;;;;;;26.22;38.94;94425.63;4892849;29;8768;-63
2023/03/04 12:42:28;;;;;;;;;;;;;;;26.24;38.43;94417.59;4873584;29;7595;-64
2023/03/04 12:45:26;;;;;;;;;;;;;;;26.23;38.74;94416.09;4887766;29;7376;-64
2023/03/04 12:48:16;;;;;;;;;;;;;;;26.28;39.11;94418.03;4858451;29;9355;-64
2023/03/04 12:50:57;;;;;;;;;;;;;;;26.27;38.49;94417.31;4860733;29;7281;-64
2023/03/04 12:53:55;;;;;;;;;;;;;;;26.26;38.89;94412.31;4884203;29;6995;-64
2023/03/04 12:56:31;;;;;;;;;;;;;;;26.26;38.79;94409.53;4908912;29;9265;-64
2023/03/04 12:59:15;;;;;;;;;;;;;;;26.27;38.64;94406.28;4890594;29;7291;-65
2023/03/04 13:02:00;;;;;;;;;;;;;;;26.32;38.81;94404.75;4897385;29;9106;-64
2023/03/04 13:04:46;;;;;;;;;;;;;;;26.34;38.79;94402.94;4908395;29;7116;-64
2023/03/04 13:07:42;;;;;;;;;;;;;;;26.35;38.59;94398.94;4913043;29;9038;-64
2023/03/04 13:10:15;;;;;;;;;;;;;;;26.38;38.19;94388.91;4931822;29;7035;-65
2023/03/04 13:13:00;;;;;;;;;;;;;;;26.40;38.56;94389.13;4918490;29;9199;-63
2023/03/04 13:15:32;;;;;;;;;;;;;;;26.44;38.07;94386.81;4913650;29;8956;-64
2023/03/04 13:18:21;;;;;;;;;;;;;;;26.43;38.41;94386.06;4913689;29;8758;-64
2023/03/04 13:21:05;;;;;;;;;;;;;;;26.47;38.39;94385.81;4914202;29;7042;-64
2023/03/04 13:23:35;;;;;;;;;;;;;;;26.48;38.24;94388.03;4949224;28;7255;-64
2023/03/04 13:26:15;;;;;;;;;;;;;;;26.50;38.88;94382.00;4972758;28;7210;-64
2023/03/04 13:28:41;;;;;;;;;;;;;;;26.53;38.02;94378.97;4976794;28;7508;-64
2023/03/04 13:31:15;;;;;;;;;;;;;;;26.54;38.40;94374.94;4973129;28;7011;-64
2023/03/04 13:33:55;;;;;;;;;;;;;;;26.58;38.53;94371.88;4970975;28;9443;-64
2023/03/04 13:36:50;;;;;;;;;;;;;;;26.60;38.50;94372.13;4967535;28;9722;-64
2023/03/04 13:39:16;;;;;;;;;;;;;;;26.62;38.32;94370.31;4960388;28;7139;-63
2023/03/04 13:41:48;;;;;;;;;;;;;;;26.64;38.56;94364.31;4967531;28;7227;-64
2023/03/04 13:44:41;;;;;;;;;;;;;;;26.68;38.08;94367.50;5000682;28;7360;-65
2023/03/04 13:47:29;;;;;;;;;;;;;;;26.70;37.88;94364.97;4980313;28;9176;-64
2023/03/04 13:50:25;;;;;;;;;;;;;;;26.71;38.65;94369.22;4970771;28;9360;-64